Vance, South Carolina
Current Conditions -  °F | °C
As of 1:15 PM on Wednesday 28 Jan 2015 (Local Time) from KMNI Reporting Station
Clear Clear  
Wind Chill: 41°   Ceiling: Unl
Heat Index: 45°   Visibility: 10mi
Dew Point: 19°   Wind: 6mph
Humidity: 37%   Direction: 310°NW
Pressure: 30.26"   Gusts: NA
Location:  33.43°N, 80.42°W
Report Text: KMNI 281815Z AUTO 31005KT 10SM CLR 07/M07 A3026 RMK AO2
Loading
Personal Weather Stations






























Interactive Weather Map New forecast layout! Learn more

10-Day Weather Forecast

Advertisements
Track Severe Weather on mobile